Close Search

Base
°C
Summit
°C

WEATHER AT A GLANCE

Image Slideshow

RMR Village

Revelstoke Mountain Resort -  RMR Village Webcam

Top of The Stoke

Revelstoke Mountain Resort -  Top of The Stoke Webcam

Top of Stellar

Revelstoke Mountain Resort -  Top of Stellar Webcam

Mackenzie Outpost

Revelstoke Mountain Resort -  Mackenzie Outpost Webcam

Ripper

Revelstoke Mountain Resort -  Ripper Webcam
Base
°C
Summit
°C
Wind (Summit)
km/h

Today's Forecast

Subpeak Weather

Time Avg. Air Temp Dew Point Avg. Rel Humidity Avg. 2 Min Wind Speed Max Gust Velocity MGV Time MGV Direction Avg. Spot Wind Velocity
2026-09-05 05:40:002° C-0° C84%14 km/h18 km/h05:39:00E13 km/h
04:40:001° C-0° C91%23 km/h26 km/h04:38:00NE24 km/h
03:40:002° C-1° C82%10 km/h13 km/h03:39:00E10 km/h
02:40:002° C-1° C83%13 km/h13 km/h02:39:00E10 km/h
01:40:002° C-1° C82%11 km/h16 km/h01:36:00NE9 km/h
00:40:001° C1° C97%9 km/h20 km/h00:38:00E10 km/h
23:40:001° C0° C97%14 km/h15 km/h23:37:00E14 km/h
22:40:001° C0° C100%14 km/h19 km/h22:39:00SE13 km/h
21:40:000° C0° C100%12 km/h18 km/h21:37:00SE12 km/h
20:40:001° C0° C100%17 km/h20 km/h20:36:00SE16 km/h
19:40:000° C0° C100%16 km/h21 km/h19:37:00SE16 km/h
18:40:000° C1° C100%12 km/h21 km/h18:37:00SE15 km/h
17:40:000° C0° C100%12 km/h18 km/h17:39:00SE11 km/h
16:40:000° C0° C100%11 km/h15 km/h16:36:00SE12 km/h
15:40:001° C1° C100%5 km/h8 km/h15:39:00S4 km/h
14:40:001° C1° C100%11 km/h14 km/h14:39:00S11 km/h
13:40:001° C1° C100%6 km/h9 km/h13:38:00S6 km/h
12:40:001° C1° C100%7 km/h11 km/h12:37:00SE9 km/h
11:40:002° C2° C100%5 km/h7 km/h11:38:00E5 km/h
10:40:002° C1° C93%5 km/h11 km/h10:38:00SE5 km/h
09:40:001° C1° C98%20 km/h24 km/h09:38:00NE20 km/h
08:40:001° C1° C100%19 km/h22 km/h08:40:00NE17 km/h
07:40:000° C0° C100%14 km/h17 km/h07:40:00NE14 km/h
06:40:000° C0° C100%14 km/h18 km/h06:36:00NE14 km/h

Time Avg. Air Temp Dew Point Avg. Rel Humidity Avg. 2 Min Wind Speed Max Gust Velocity MGV Time MGV Direction Avg. Spot Wind Velocity
2026-09-05 05:40:002° C-0° C84%14 km/h18 km/h05:39:00E13 km/h
05:35:002° C-1° C85%16 km/h23 km/h05:32:00E17 km/h
05:30:002° C-0° C84%16 km/h19 km/h05:29:00E16 km/h
05:25:002° C-1° C84%17 km/h21 km/h05:22:00E17 km/h
05:20:002° C-1° C84%16 km/h19 km/h05:19:00E15 km/h
05:15:002° C-1° C85%18 km/h20 km/h05:15:00E17 km/h
05:10:001° C-1° C87%18 km/h21 km/h05:06:00E18 km/h
05:05:002° C-0° C87%18 km/h21 km/h05:01:00NE19 km/h
05:00:001° C-0° C91%21 km/h24 km/h04:56:00E21 km/h
04:55:001° C0° C91%21 km/h26 km/h04:52:00NE23 km/h
04:50:001° C0° C91%24 km/h26 km/h04:48:00E24 km/h
04:45:001° C-0° C90%24 km/h28 km/h04:43:00NE24 km/h
04:40:001° C-0° C91%23 km/h26 km/h04:38:00NE24 km/h

We value your privacy
We use cookies to enhance your browsing experience, serve personalized ads or content, and analyze our traffic. By clicking "Allow Cookies", you consent to our use of cookies. For additional details view our Privacy Policy.
Cookie preferences

You can control how your data is used on our website. Learn more below about the cookies we use by reviewing our Privacy Policy.

Your cookie preferences have been saved.